Time;durP1;ratioP1;P1;durP2;ratioP2;P2;SDS_P1;SDS_P2;PMS_P1;PMS_P2;Temp;Humidity;BMP_temperature;BMP_pressure;BME280_temperature;BME280_humidity;BME280_pressure;Samples;Min_cycle;Max_cycle;Signal;HPM_P1;HPM_P2
2022/09/19 00:00:52;;;;;;;;;;;;;;;10.58;100.00;99206.25;3057580;19;20030;-48
2022/09/19 00:01:57;;;;;;;;;;;;;;;10.56;100.00;99210.84;3056874;19;20246;-50
2022/09/19 00:02:59;;;;;;;;;;;;;;;10.55;100.00;99209.16;3057342;19;19922;-49
2022/09/19 00:04:05;;;;;;;;;;;;;;;10.50;100.00;99208.69;3056964;19;19943;-48
2022/09/19 00:05:10;;;;;;;;;;;;;;;10.44;100.00;99213.53;3056998;19;19919;-49
2022/09/19 00:06:15;;;;;;;;;;;;;;;10.43;100.00;99206.50;3055822;19;20419;-48
2022/09/19 00:07:16;;;;;;;;;;;;;;;10.44;100.00;99210.88;3056419;19;19919;-49
2022/09/19 00:08:22;;;;;;;;;;;;;;;10.40;100.00;99198.75;3056881;19;19918;-48
2022/09/19 00:09:28;;;;;;;;;;;;;;;10.37;100.00;99206.19;3056932;19;20553;-49
2022/09/19 00:10:29;;;;;;;;;;;;;;;10.38;100.00;99214.06;3057100;19;20337;-48
2022/09/19 00:11:34;;;;;;;;;;;;;;;10.31;100.00;99212.84;3057342;19;19986;-48
2022/09/19 00:12:36;;;;;;;;;;;;;;;10.27;100.00;99205.19;3056799;19;20062;-49
2022/09/19 00:13:45;;;;;;;;;;;;;;;10.31;100.00;99212.84;3057002;19;19923;-48
2022/09/19 00:14:50;;;;;;;;;;;;;;;10.34;100.00;99215.28;3056427;19;19919;-48
2022/09/19 00:15:51;;;;;;;;;;;;;;;10.32;100.00;99214.53;3057192;19;19946;-49
2022/09/19 00:16:57;;;;;;;;;;;;;;;10.31;100.00;99218.19;3056622;19;19919;-48
2022/09/19 00:17:59;;;;;;;;;;;;;;;10.28;100.00;99213.06;3057180;19;19927;-49
2022/09/19 00:19:05;;;;;;;;;;;;;;;10.25;100.00;99218.69;3056807;19;19926;-48
2022/09/19 00:20:07;;;;;;;;;;;;;;;10.22;100.00;99215.41;3056831;19;19946;-49
2022/09/19 00:21:11;;;;;;;;;;;;;;;10.22;100.00;99224.25;3056905;19;19926;-48
2022/09/19 00:22:13;;;;;;;;;;;;;;;10.19;100.00;99218.31;3056680;19;20327;-48
2022/09/19 00:24:49;;;;;;;;;;;;;;;10.14;100.00;99210.66;3056598;19;19935;-49
2022/09/19 00:25:58;;;;;;;;;;;;;;;10.11;100.00;99216.25;3056430;19;19927;-48
2022/09/19 00:27:04;;;;;;;;;;;;;;;10.07;100.00;99212.13;3056630;19;20363;-49
2022/09/19 00:28:05;;;;;;;;;;;;;;;10.07;100.00;99198.78;3056860;19;20354;-48
2022/09/19 00:29:10;;;;;;;;;;;;;;;10.08;100.00;99203.16;3056812;19;19932;-48
2022/09/19 00:30:12;;;;;;;;;;;;;;;10.08;100.00;99198.66;3056477;19;20004;-48
2022/09/19 00:31:19;;;;;;;;;;;;;;;10.09;100.00;99203.03;3056798;19;19923;-49
2022/09/19 00:32:21;;;;;;;;;;;;;;;10.07;100.00;99204.13;3056833;19;19915;-48
2022/09/19 00:33:27;;;;;;;;;;;;;;;10.09;100.00;99202.19;3056505;19;20254;-49
2022/09/19 00:34:30;;;;;;;;;;;;;;;10.11;100.00;99205.56;3055718;19;19923;-48
2022/09/19 00:35:35;;;;;;;;;;;;;;;10.10;100.00;99193.22;3055430;19;19923;-49
2022/09/19 00:36:38;;;;;;;;;;;;;;;10.09;100.00;99202.19;3055731;19;20475;-49
2022/09/19 00:37:42;;;;;;;;;;;;;;;10.09;100.00;99196.84;3056731;19;20018;-49
2022/09/19 00:38:44;;;;;;;;;;;;;;;10.10;100.00;99198.53;3056952;19;20362;-48
2022/09/19 00:39:48;;;;;;;;;;;;;;;10.12;100.00;99196.59;3056156;19;20014;-48
2022/09/19 00:40:50;;;;;;;;;;;;;;;10.11;100.00;99200.25;3056714;19;20006;-49
2022/09/19 00:41:55;;;;;;;;;;;;;;;10.11;100.00;99201.09;3055622;19;19925;-48
2022/09/19 00:42:57;;;;;;;;;;;;;;;10.10;100.00;99204.72;3055841;19;19919;-49
2022/09/19 00:44:03;;;;;;;;;;;;;;;10.11;100.00;99200.25;3055504;19;19923;-49
2022/09/19 00:45:23;;;;;;;;;;;;;;;10.09;100.00;99202.19;3056627;19;19918;-49
2022/09/19 00:46:29;;;;;;;;;;;;;;;10.12;100.00;99201.94;3055927;19;19947;-48
2022/09/19 00:47:35;;;;;;;;;;;;;;;10.11;100.00;99205.56;3056608;19;19922;-49
2022/09/19 00:48:41;;;;;;;;;;;;;;;10.12;100.00;99199.28;3056390;19;19926;-48
2022/09/19 00:49:45;;;;;;;;;;;;;;;10.10;100.00;99199.41;3055972;19;19923;-49
2022/09/19 00:50:51;;;;;;;;;;;;;;;10.07;100.00;99194.31;3055648;19;19919;-48
2022/09/19 00:51:55;;;;;;;;;;;;;;;10.06;100.00;99197.94;3055359;19;20363;-49
2022/09/19 00:53:26;;;;;;;;;;;;;;;10.08;100.00;99189.81;3055544;19;20329;-48
2022/09/19 00:54:31;;;;;;;;;;;;;;;10.08;100.00;99195.16;3055177;19;19923;-49
2022/09/19 00:55:36;;;;;;;;;;;;;;;10.06;100.00;99189.94;3055726;19;19932;-48
2022/09/19 00:56:40;;;;;;;;;;;;;;;10.06;100.00;99197.09;3055726;19;19915;-49
2022/09/19 00:57:47;;;;;;;;;;;;;;;10.03;100.00;99197.31;3055252;19;19939;-48
2022/09/19 00:58:53;;;;;;;;;;;;;;;10.02;100.00;99195.66;3055513;19;19926;-48
2022/09/19 00:59:55;;;;;;;;;;;;;;;9.99;100.00;99201.22;3055294;19;19915;-48
2022/09/19 01:01:00;;;;;;;;;;;;;;;9.97;100.00;99200.50;3055731;19;19923;-48
2022/09/19 01:02:04;;;;;;;;;;;;;;;9.95;100.00;99195.28;3055036;19;19926;-49
2022/09/19 01:03:09;;;;;;;;;;;;;;;9.93;100.00;99191.03;3055620;19;19923;-48
2022/09/19 01:04:15;;;;;;;;;;;;;;;9.92;100.00;99194.66;3055329;19;20256;-48
2022/09/19 01:05:24;;;;;;;;;;;;;;;9.92;100.00;99190.19;3055585;19;19928;-48
2022/09/19 01:06:39;;;;;;;;;;;;;;;9.89;100.00;99192.28;3054512;19;19958;-48
2022/09/19 01:07:43;;;;;;;;;;;;;;;9.86;100.00;99189.84;3055771;19;20004;-49
2022/09/19 01:08:59;;;;;;;;;;;;;;;9.85;100.00;99193.47;3055480;19;19919;-48
2022/09/19 01:10:17;;;;;;;;;;;;;;;9.79;100.00;99192.13;3055466;19;19915;-48
2022/09/19 01:11:31;;;;;;;;;;;;;;;9.76;100.00;99189.72;3055513;19;19989;-48
2022/09/19 01:12:55;;;;;;;;;;;;;;;9.74;100.00;99195.19;3055545;19;19927;-48
2022/09/19 01:14:02;;;;;;;;;;;;;;;9.73;100.00;99195.28;3056440;19;19931;-48
2022/09/19 01:15:23;;;;;;;;;;;;;;;9.66;100.00;99194.91;3055240;19;20248;-49
2022/09/19 01:16:33;;;;;;;;;;;;;;;9.63;100.00;99192.50;3055510;19;19920;-48
2022/09/19 01:17:45;;;;;;;;;;;;;;;9.62;100.00;99196.13;3055415;19;20001;-49
2022/09/19 01:18:52;;;;;;;;;;;;;;;9.58;100.00;99192.00;3054838;19;20330;-49
2022/09/19 01:20:14;;;;;;;;;;;;;;;9.56;100.00;99193.09;3055467;19;19938;-49
2022/09/19 01:22:37;;;;;;;;;;;;;;;9.55;100.00;99194.91;3055481;19;19933;-49
2022/09/19 01:23:40;;;;;;;;;;;;;;;9.52;100.00;99194.31;3055733;19;19923;-48
2022/09/19 01:24:49;;;;;;;;;;;;;;;9.52;100.00;99194.31;3054872;19;20030;-47
2022/09/19 01:26:03;;;;;;;;;;;;;;;9.51;100.00;99193.47;3055137;19;20299;-48
2022/09/19 01:27:25;;;;;;;;;;;;;;;9.47;100.00;99193.81;3055074;19;19919;-48
2022/09/19 01:28:30;;;;;;;;;;;;;;;9.45;100.00;99191.25;3055084;19;19932;-49
2022/09/19 01:29:36;;;;;;;;;;;;;;;9.43;100.00;99189.69;3054856;19;20008;-48
2022/09/19 01:30:48;;;;;;;;;;;;;;;9.37;100.00;99194.53;3055096;19;19915;-49
2022/09/19 01:31:52;;;;;;;;;;;;;;;9.34;100.00;99194.75;3055009;19;20311;-49
2022/09/19 01:33:01;;;;;;;;;;;;;;;9.31;100.00;99194.13;3054781;19;19924;-48
2022/09/19 01:34:05;;;;;;;;;;;;;;;9.23;100.00;99185.91;3055220;19;19918;-48
2022/09/19 01:35:11;;;;;;;;;;;;;;;9.15;100.00;99188.31;3055110;19;20291;-48
2022/09/19 01:36:14;;;;;;;;;;;;;;;9.08;100.00;99197.72;3058261;19;19915;-49
2022/09/19 01:37:29;;;;;;;;;;;;;;;9.02;100.00;99191.91;3058153;19;20007;-49
2022/09/19 01:38:35;;;;;;;;;;;;;;;8.94;100.00;99191.63;3058320;19;20046;-49
2022/09/19 01:39:40;;;;;;;;;;;;;;;8.90;100.00;99190.19;3057791;19;19919;-48
2022/09/19 01:40:41;;;;;;;;;;;;;;;8.84;100.00;99192.44;3058223;19;19915;-48
2022/09/19 01:41:51;;;;;;;;;;;;;;;8.79;100.00;99195.47;3056825;19;20005;-48
2022/09/19 01:42:55;;;;;;;;;;;;;;;8.72;100.00;99193.34;3058206;19;20625;-48
2022/09/19 01:44:05;;;;;;;;;;;;;;;8.68;100.00;99194.56;3057801;19;20266;-48
2022/09/19 01:45:10;;;;;;;;;;;;;;;8.62;100.00;99190.53;3058249;19;19947;-48
2022/09/19 01:46:26;;;;;;;;;;;;;;;8.56;100.00;99189.19;3057876;19;19943;-48
2022/09/19 01:47:31;;;;;;;;;;;;;;;8.52;100.00;99187.72;3058150;19;19926;-48
2022/09/19 01:48:44;;;;;;;;;;;;;;;8.48;100.00;99185.38;3057786;19;20280;-48
2022/09/19 01:50:01;;;;;;;;;;;;;;;8.42;100.00;99185.84;3057438;19;20352;-49
2022/09/19 01:51:17;;;;;;;;;;;;;;;8.37;100.00;99186.16;3057827;19;19918;-48
2022/09/19 01:52:22;;;;;;;;;;;;;;;8.32;100.00;99190.16;3058277;19;19919;-48
2022/09/19 01:53:46;;;;;;;;;;;;;;;8.25;100.00;99182.56;3058034;19;20250;-48
2022/09/19 01:55:17;;;;;;;;;;;;;;;8.21;100.00;99186.41;3057172;19;20527;-48
2022/09/19 01:56:33;;;;;;;;;;;;;;;8.18;100.00;99185.78;3057937;19;19923;-48
2022/09/19 01:57:43;;;;;;;;;;;;;;;8.14;100.00;99190.47;3058097;19;19978;-48
2022/09/19 01:58:51;;;;;;;;;;;;;;;8.10;100.00;99178.34;3057735;19;19923;-48
2022/09/19 02:00:05;;;;;;;;;;;;;;;8.08;100.00;99182.97;3057986;19;19986;-49
2022/09/19 02:01:31;;;;;;;;;;;;;;;8.10;100.00;99183.69;3058327;19;19937;-48
2022/09/19 02:02:46;;;;;;;;;;;;;;;8.10;100.00;99183.69;3057699;19;20247;-49
2022/09/19 02:03:53;;;;;;;;;;;;;;;8.10;100.00;99181.00;3057988;19;20281;-48
2022/09/19 02:05:01;;;;;;;;;;;;;;;8.09;100.00;99175.84;3057656;19;19990;-48
2022/09/19 02:06:22;;;;;;;;;;;;;;;8.06;100.00;99171.59;3058189;19;20200;-48
2022/09/19 02:07:32;;;;;;;;;;;;;;;8.05;100.00;99177.88;3057117;19;19923;-49
2022/09/19 02:08:43;;;;;;;;;;;;;;;8.04;100.00;99170.84;3057607;19;19944;-49
2022/09/19 02:09:50;;;;;;;;;;;;;;;8.03;100.00;99171.81;3057765;19;20045;-49
2022/09/19 02:11:11;;;;;;;;;;;;;;;8.02;100.00;99167.44;3057814;19;19922;-48
2022/09/19 02:12:16;;;;;;;;;;;;;;;8.01;100.00;99171.06;3057829;19;19944;-48
2022/09/19 02:13:22;;;;;;;;;;;;;;;8.01;100.00;99163.09;3057840;19;20043;-49
2022/09/19 02:14:37;;;;;;;;;;;;;;;7.99;100.00;99170.31;3057746;19;20469;-48
2022/09/19 02:15:46;;;;;;;;;;;;;;;8.01;100.00;99171.06;3057700;19;19929;-49
2022/09/19 02:16:51;;;;;;;;;;;;;;;8.01;100.00;99164.91;3057478;19;20358;-48
2022/09/19 02:17:57;;;;;;;;;;;;;;;8.00;100.00;99166.72;3058013;19;19915;-48
2022/09/19 02:18:59;;;;;;;;;;;;;;;8.01;100.00;99163.09;3057623;19;19944;-49
2022/09/19 02:20:11;;;;;;;;;;;;;;;8.01;100.00;99163.09;3057833;19;19927;-48
2022/09/19 02:21:14;;;;;;;;;;;;;;;7.99;100.00;99164.16;3057531;19;19996;-48
2022/09/19 02:22:21;;;;;;;;;;;;;;;8.00;100.00;99158.75;3057997;19;19995;-48
2022/09/19 02:23:24;;;;;;;;;;;;;;;8.02;100.00;99158.63;3057432;19;19955;-49
2022/09/19 02:24:30;;;;;;;;;;;;;;;8.06;100.00;99160.97;3057680;19;19923;-48
2022/09/19 02:25:33;;;;;;;;;;;;;;;8.10;100.00;99154.44;3057446;19;19930;-48
2022/09/19 02:26:39;;;;;;;;;;;;;;;8.14;100.00;99163.91;3057966;19;19935;-48
2022/09/19 02:27:43;;;;;;;;;;;;;;;8.17;100.00;99150.41;3056623;19;19927;-48
2022/09/19 02:28:54;;;;;;;;;;;;;;;8.23;100.00;99163.22;3057755;19;20317;-48
2022/09/19 02:29:58;;;;;;;;;;;;;;;8.27;100.00;99159.41;3057179;19;19923;-48
2022/09/19 02:31:06;;;;;;;;;;;;;;;8.30;100.00;99153.88;3057636;19;20043;-48
2022/09/19 02:32:11;;;;;;;;;;;;;;;8.36;100.00;99151.72;3057610;19;19931;-48
2022/09/19 02:33:16;;;;;;;;;;;;;;;8.39;100.00;99155.03;3057740;19;19923;-48
2022/09/19 02:34:19;;;;;;;;;;;;;;;8.44;100.00;99162.66;3057378;19;19923;-48
2022/09/19 02:35:34;;;;;;;;;;;;;;;8.48;100.00;99162.31;3057550;19;19926;-49
2022/09/19 02:36:42;;;;;;;;;;;;;;;8.50;100.00;99159.53;3057365;19;19971;-48
2022/09/19 02:37:54;;;;;;;;;;;;;;;8.51;100.00;99159.44;3057510;19;19926;-48
2022/09/19 02:39:10;;;;;;;;;;;;;;;8.55;100.00;99165.38;3057638;19;19923;-48
2022/09/19 02:40:32;;;;;;;;;;;;;;;8.57;100.00;99166.94;3057347;19;19926;-51
2022/09/19 02:41:47;;;;;;;;;;;;;;;8.60;100.00;99171.19;3056758;19;19927;-48
2022/09/19 02:43:14;;;;;;;;;;;;;;;8.58;100.00;99170.44;3057869;19;20328;-48
2022/09/19 02:44:19;;;;;;;;;;;;;;;8.59;100.00;99169.47;3057601;19;19927;-49
2022/09/19 02:45:32;;;;;;;;;;;;;;;8.55;100.00;99176.84;3057006;19;19919;-48
2022/09/19 02:46:49;;;;;;;;;;;;;;;8.56;100.00;99167.06;3056599;19;19922;-49
2022/09/19 02:48:00;;;;;;;;;;;;;;;8.58;100.00;99175.75;3056532;19;19918;-48
2022/09/19 02:49:12;;;;;;;;;;;;;;;8.59;100.00;99174.78;3057398;19;19922;-48
2022/09/19 02:50:22;;;;;;;;;;;;;;;8.60;100.00;99177.34;3057241;19;19969;-49
2022/09/19 02:51:31;;;;;;;;;;;;;;;8.62;100.00;99179.91;3057236;19;19939;-49
2022/09/19 02:52:37;;;;;;;;;;;;;;;8.64;100.00;99167.34;3057201;19;19926;-48
2022/09/19 02:53:54;;;;;;;;;;;;;;;8.66;100.00;99181.38;3057614;19;19935;-48
2022/09/19 02:55:11;;;;;;;;;;;;;;;8.66;100.00;99181.38;3056863;19;19930;-48
2022/09/19 02:56:18;;;;;;;;;;;;;;;8.64;100.00;99178.81;3057244;19;19936;-48
2022/09/19 02:57:22;;;;;;;;;;;;;;;8.62;100.00;99180.75;3057330;19;19942;-49
2022/09/19 02:58:27;;;;;;;;;;;;;;;8.62;100.00;99179.91;3057327;19;19981;-49
2022/09/19 02:59:30;;;;;;;;;;;;;;;8.61;100.00;99179.03;3057308;19;19919;-48
2022/09/19 03:00:38;;;;;;;;;;;;;;;8.61;100.00;99181.72;3056981;19;19940;-49
2022/09/19 03:01:41;;;;;;;;;;;;;;;8.58;100.00;99181.06;3057247;19;19915;-48
2022/09/19 03:02:54;;;;;;;;;;;;;;;8.57;100.00;99182.06;3057236;19;19918;-49
2022/09/19 03:04:13;;;;;;;;;;;;;;;8.54;100.00;99182.28;3057289;19;19923;-48
2022/09/19 03:05:22;;;;;;;;;;;;;;;8.52;100.00;99184.22;3057097;19;19948;-49
2022/09/19 03:08:15;;;;;;;;;;;;;;;8.53;100.00;99185.91;3055065;19;19968;-48
2022/09/19 03:09:21;;;;;;;;;;;;;;;8.48;100.00;99182.72;3056075;19;19960;-47
2022/09/19 03:10:31;;;;;;;;;;;;;;;8.48;100.00;99182.72;3056905;19;19926;-48
2022/09/19 03:11:45;;;;;;;;;;;;;;;8.44;100.00;99176.81;3058299;19;19929;-47
2022/09/19 03:12:58;;;;;;;;;;;;;;;8.42;100.00;99188.50;3056868;19;20106;-48
2022/09/19 03:14:01;;;;;;;;;;;;;;;8.43;100.00;99184.88;3056868;19;20504;-48
2022/09/19 03:15:07;;;;;;;;;;;;;;;8.45;100.00;99189.09;3056414;19;19922;-47
2022/09/19 03:16:17;;;;;;;;;;;;;;;8.46;100.00;99184.63;3058330;19;19919;-48
2022/09/19 03:17:22;;;;;;;;;;;;;;;8.48;100.00;99185.38;3056947;19;19926;-47
2022/09/19 03:18:24;;;;;;;;;;;;;;;8.48;100.00;99185.38;3056605;19;19947;-48
2022/09/19 03:19:32;;;;;;;;;;;;;;;8.49;100.00;99187.09;3056748;19;19922;-48
2022/09/19 03:20:37;;;;;;;;;;;;;;;8.49;100.00;99185.28;3056770;19;19927;-48
2022/09/19 03:21:43;;;;;;;;;;;;;;;8.49;100.00;99189.75;3057947;19;20322;-49
2022/09/19 03:22:45;;;;;;;;;;;;;;;8.47;100.00;99191.66;3056653;19;19923;-48
2022/09/19 03:23:50;;;;;;;;;;;;;;;8.48;100.00;99188.03;3056893;19;19915;-48
2022/09/19 03:25:01;;;;;;;;;;;;;;;8.48;100.00;99196.00;3056501;19;19939;-47
2022/09/19 03:26:07;;;;;;;;;;;;;;;8.49;100.00;99189.75;3056929;19;19919;-47
2022/09/19 03:27:09;;;;;;;;;;;;;;;8.50;100.00;99180.81;3056760;19;19946;-48
2022/09/19 03:28:19;;;;;;;;;;;;;;;8.52;100.00;99184.22;3056411;19;19946;-48
2022/09/19 03:29:22;;;;;;;;;;;;;;;8.54;100.00;99187.59;3056465;19;20334;-48
2022/09/19 03:30:31;;;;;;;;;;;;;;;8.59;100.00;99190.75;3056764;19;19930;-48
2022/09/19 03:31:33;;;;;;;;;;;;;;;8.59;100.00;99196.91;3056729;19;19930;-48
2022/09/19 03:32:41;;;;;;;;;;;;;;;8.64;100.00;99188.63;3057044;19;20407;-47
2022/09/19 03:33:43;;;;;;;;;;;;;;;8.68;100.00;99187.44;3056336;19;20270;-48
2022/09/19 03:34:48;;;;;;;;;;;;;;;8.69;100.00;99188.28;3056410;19;20342;-48
2022/09/19 03:35:51;;;;;;;;;;;;;;;8.70;100.00;99198.78;3056461;19;19918;-48
2022/09/19 03:36:56;;;;;;;;;;;;;;;8.71;100.00;99194.31;3056538;19;19922;-48
2022/09/19 03:38:01;;;;;;;;;;;;;;;8.71;100.00;99189.84;3056553;19;20654;-47
2022/09/19 03:39:06;;;;;;;;;;;;;;;8.71;100.00;99200.47;3056555;19;19922;-47
2022/09/19 03:40:14;;;;;;;;;;;;;;;8.73;100.00;99203.03;3055901;19;19948;-48
2022/09/19 03:41:21;;;;;;;;;;;;;;;8.73;100.00;99195.91;3056534;19;19950;-49
2022/09/19 03:42:24;;;;;;;;;;;;;;;8.73;100.00;99203.03;3056819;19;19927;-48
2022/09/19 03:43:29;;;;;;;;;;;;;;;8.75;100.00;99201.97;3056214;19;19915;-48
2022/09/19 03:44:31;;;;;;;;;;;;;;;8.76;100.00;99211.63;3055816;19;20263;-48
2022/09/19 03:45:35;;;;;;;;;;;;;;;8.75;100.00;99199.28;3055985;19;19929;-48
2022/09/19 03:46:37;;;;;;;;;;;;;;;8.75;100.00;99201.97;3056715;19;19938;-48
2022/09/19 03:47:42;;;;;;;;;;;;;;;8.78;100.00;99206.22;3055930;19;20401;-48
2022/09/19 03:48:45;;;;;;;;;;;;;;;8.78;100.00;99207.06;3056787;19;20307;-48
2022/09/19 03:49:51;;;;;;;;;;;;;;;8.77;100.00;99208.00;3056528;19;19939;-48
2022/09/19 03:50:54;;;;;;;;;;;;;;;8.75;100.00;99212.59;3056402;19;20044;-47
2022/09/19 03:51:59;;;;;;;;;;;;;;;8.74;100.00;99210.91;3055896;19;19933;-48
2022/09/19 03:53:02;;;;;;;;;;;;;;;8.71;100.00;99211.13;3056664;19;19924;-47
2022/09/19 03:54:09;;;;;;;;;;;;;;;8.71;100.00;99226.22;3056419;19;19919;-48
2022/09/19 03:55:17;;;;;;;;;;;;;;;8.67;100.00;99217.66;3056343;19;19919;-48
2022/09/19 03:56:22;;;;;;;;;;;;;;;8.66;100.00;99223.94;3056337;19;20355;-47
2022/09/19 03:57:24;;;;;;;;;;;;;;;8.62;100.00;99222.44;3056347;19;19934;-47
2022/09/19 03:58:30;;;;;;;;;;;;;;;8.58;100.00;99221.81;3054575;19;20258;-47
2022/09/19 03:59:33;;;;;;;;;;;;;;;8.51;100.00;99227.69;3056457;19;19953;-48
2022/09/19 04:00:38;;;;;;;;;;;;;;;8.48;100.00;99219.94;3055451;19;19930;-47
2022/09/19 04:01:40;;;;;;;;;;;;;;;8.42;100.00;99215.94;3055764;19;20414;-47
2022/09/19 04:02:44;;;;;;;;;;;;;;;8.37;100.00;99225.19;3056098;19;19986;-47
2022/09/19 04:03:48;;;;;;;;;;;;;;;8.32;100.00;99230.00;3056488;19;19953;-48
2022/09/19 04:04:53;;;;;;;;;;;;;;;8.29;100.00;99221.25;3055641;19;20507;-48
2022/09/19 04:05:55;;;;;;;;;;;;;;;8.27;100.00;99222.31;3055745;19;19915;-47
2022/09/19 04:07:01;;;;;;;;;;;;;;;8.25;100.00;99224.25;3055622;19;19918;-47
2022/09/19 04:08:03;;;;;;;;;;;;;;;8.23;100.00;99226.16;3056163;19;20333;-47
2022/09/19 04:09:07;;;;;;;;;;;;;;;8.18;100.00;99215.88;3055230;19;20330;-48
2022/09/19 04:10:09;;;;;;;;;;;;;;;8.13;100.00;99228.63;3056074;19;20006;-47
2022/09/19 04:11:16;;;;;;;;;;;;;;;8.14;100.00;99226.81;3056069;19;19927;-47
2022/09/19 04:12:19;;;;;;;;;;;;;;;8.11;100.00;99211.94;3056185;19;19952;-48
2022/09/19 04:13:23;;;;;;;;;;;;;;;8.13;100.00;99220.66;3055959;19;20222;-48
2022/09/19 04:14:28;;;;;;;;;;;;;;;8.11;100.00;99217.25;3055976;19;19943;-48
2022/09/19 04:15:34;;;;;;;;;;;;;;;8.14;100.00;99222.34;3055879;19;20319;-48
2022/09/19 04:16:38;;;;;;;;;;;;;;;8.15;100.00;99218.75;3055982;19;20311;-47
2022/09/19 04:17:44;;;;;;;;;;;;;;;8.17;100.00;99214.19;3055255;19;20037;-47
2022/09/19 04:18:50;;;;;;;;;;;;;;;8.21;100.00;99212.97;3055588;19;19939;-48
2022/09/19 04:20:27;;;;;;;;;;;;;;;8.22;100.00;99209.34;3055710;19;19939;-47
2022/09/19 04:22:01;;;;;;;;;;;;;;;8.26;100.00;99215.31;3054998;19;19935;-48
2022/09/19 04:23:07;;;;;;;;;;;;;;;8.27;100.00;99220.53;3055742;19;20002;-47
2022/09/19 04:24:33;;;;;;;;;;;;;;;8.30;100.00;99222.97;3056014;19;19919;-47
2022/09/19 04:26:04;;;;;;;;;;;;;;;8.34;100.00;99223.59;3056544;19;19944;-49
2022/09/19 04:27:13;;;;;;;;;;;;;;;8.38;100.00;99229.56;3055786;19;19923;-47
2022/09/19 04:28:23;;;;;;;;;;;;;;;8.41;100.00;99227.53;3056104;19;19915;-47
2022/09/19 04:29:26;;;;;;;;;;;;;;;8.44;100.00;99229.13;3054977;19;19967;-48
2022/09/19 04:30:31;;;;;;;;;;;;;;;8.46;100.00;99229.84;3055539;19;19918;-48
2022/09/19 04:31:41;;;;;;;;;;;;;;;8.50;100.00;99226.00;3055231;19;19918;-48
2022/09/19 04:32:43;;;;;;;;;;;;;;;8.53;100.00;99231.09;3055705;19;19990;-48
2022/09/19 04:33:47;;;;;;;;;;;;;;;8.53;100.00;99229.28;3055890;19;19940;-47
2022/09/19 04:34:49;;;;;;;;;;;;;;;8.56;100.00;99236.19;3055306;19;19967;-48
2022/09/19 04:35:59;;;;;;;;;;;;;;;8.58;100.00;99232.44;3055624;19;19926;-48
2022/09/19 04:37:06;;;;;;;;;;;;;;;8.62;100.00;99241.06;3055831;19;19915;-47
2022/09/19 04:38:16;;;;;;;;;;;;;;;8.64;100.00;99245.31;3055457;19;19940;-48
2022/09/19 04:39:20;;;;;;;;;;;;;;;8.69;100.00;99244.97;3055755;19;20311;-47
2022/09/19 04:40:25;;;;;;;;;;;;;;;8.73;100.00;99246.44;3055721;19;19982;-48
2022/09/19 04:41:37;;;;;;;;;;;;;;;8.78;100.00;99244.28;3055594;19;20347;-49
2022/09/19 04:42:39;;;;;;;;;;;;;;;8.82;100.00;99248.41;3056123;19;19919;-48
2022/09/19 04:43:48;;;;;;;;;;;;;;;8.87;100.00;99253.41;3055642;19;19923;-49
2022/09/19 04:45:20;;;;;;;;;;;;;;;8.92;100.00;99257.44;3055925;19;19919;-47
2022/09/19 04:46:34;;;;;;;;;;;;;;;8.96;100.00;99258.88;3055347;19;20449;-48
2022/09/19 04:47:41;;;;;;;;;;;;;;;8.99;100.00;99261.31;3055689;19;19923;-48
2022/09/19 04:48:46;;;;;;;;;;;;;;;9.00;100.00;99260.34;3055239;19;19923;-48
2022/09/19 04:49:49;;;;;;;;;;;;;;;9.05;100.00;99260.03;3054620;19;20307;-47
2022/09/19 04:50:54;;;;;;;;;;;;;;;9.07;100.00;99266.06;3055780;19;19918;-47
2022/09/19 04:51:57;;;;;;;;;;;;;;;9.12;100.00;99271.88;3056850;19;20309;-48
2022/09/19 04:53:01;;;;;;;;;;;;;;;9.16;100.00;99264.53;3055210;19;20331;-47
2022/09/19 04:54:05;;;;;;;;;;;;;;;9.19;100.00;99269.59;3054852;19;19936;-48
2022/09/19 04:55:10;;;;;;;;;;;;;;;9.22;100.00;99272.03;3056482;19;20322;-48
2022/09/19 04:56:12;;;;;;;;;;;;;;;9.24;100.00;99275.44;3057014;19;19921;-48
2022/09/19 04:57:19;;;;;;;;;;;;;;;9.26;100.00;99281.50;3055678;19;20326;-47
2022/09/19 04:58:21;;;;;;;;;;;;;;;9.26;100.00;99287.69;3055452;19;19919;-48
2022/09/19 04:59:26;;;;;;;;;;;;;;;9.29;100.00;99286.59;3056147;19;20337;-48
2022/09/19 05:00:38;;;;;;;;;;;;;;;9.34;100.00;99281.75;3055759;19;19932;-48
2022/09/19 05:01:51;;;;;;;;;;;;;;;9.37;100.00;99285.06;3055718;19;20194;-48
2022/09/19 05:02:56;;;;;;;;;;;;;;;9.38;100.00;99291.22;3055089;19;19927;-48
2022/09/19 05:04:03;;;;;;;;;;;;;;;9.40;100.00;99291.97;3056804;19;19980;-48
2022/09/19 05:05:06;;;;;;;;;;;;;;;9.44;100.00;99285.41;3055363;19;20265;-48
2022/09/19 05:06:11;;;;;;;;;;;;;;;9.48;100.00;99291.38;3055734;19;19923;-48
2022/09/19 05:07:13;;;;;;;;;;;;;;;9.48;100.00;99297.53;3054886;19;19923;-47
2022/09/19 05:08:24;;;;;;;;;;;;;;;9.44;100.00;99309.38;3055629;19;19918;-48
2022/09/19 05:09:26;;;;;;;;;;;;;;;9.48;100.00;99302.88;3053807;19;20019;-48
2022/09/19 05:10:42;;;;;;;;;;;;;;;9.52;100.00;99314.16;3054506;19;20346;-47
2022/09/19 05:11:47;;;;;;;;;;;;;;;9.53;100.00;99306.03;3052103;19;20290;-48
2022/09/19 05:12:51;;;;;;;;;;;;;;;9.57;100.00;99307.50;3054956;19;20298;-48
2022/09/19 05:13:57;;;;;;;;;;;;;;;9.56;100.00;99305.78;3055327;19;20299;-48
2022/09/19 05:15:01;;;;;;;;;;;;;;;9.59;100.00;99310.88;3054881;19;19922;-48
2022/09/19 05:16:06;;;;;;;;;;;;;;;9.62;100.00;99309.81;3055389;19;19972;-48
2022/09/19 05:17:10;;;;;;;;;;;;;;;9.58;100.00;99316.31;3054340;19;20002;-48
2022/09/19 05:18:20;;;;;;;;;;;;;;;9.56;100.00;99316.44;3055140;19;20360;-47
2022/09/19 05:19:23;;;;;;;;;;;;;;;9.61;100.00;99324.09;3054631;19;19915;-48
2022/09/19 05:20:30;;;;;;;;;;;;;;;9.64;100.00;99319.41;3054742;19;19990;-48
2022/09/19 05:21:36;;;;;;;;;;;;;;;9.58;100.00;99319.00;3054506;19;19926;-48
2022/09/19 05:22:41;;;;;;;;;;;;;;;9.64;100.00;99318.53;3054290;19;19922;-47
2022/09/19 05:23:43;;;;;;;;;;;;;;;9.66;100.00;99321.94;3054994;19;19925;-48
2022/09/19 05:24:48;;;;;;;;;;;;;;;9.68;100.00;99320.84;3054495;19;19922;-48
2022/09/19 05:25:52;;;;;;;;;;;;;;;9.70;100.00;99315.41;3054250;19;19925;-48
2022/09/19 05:26:56;;;;;;;;;;;;;;;9.74;100.00;99333.69;3053689;19;19919;-48
2022/09/19 05:28:04;;;;;;;;;;;;;;;9.73;100.00;99328.47;3054383;19;19918;-47
2022/09/19 05:29:09;;;;;;;;;;;;;;;9.70;100.00;99326.91;3054665;19;19943;-48
2022/09/19 05:30:24;;;;;;;;;;;;;;;9.73;100.00;99329.34;3054881;19;19927;-48
2022/09/19 05:31:30;;;;;;;;;;;;;;;9.74;100.00;99336.38;3055375;19;19918;-47
2022/09/19 05:32:54;;;;;;;;;;;;;;;9.80;100.00;99334.19;3054614;19;19918;-48
2022/09/19 05:34:09;;;;;;;;;;;;;;;9.79;100.00;99335.13;3055130;19;19915;-48
2022/09/19 05:35:11;;;;;;;;;;;;;;;9.80;100.00;99328.84;3054922;19;19971;-48
2022/09/19 05:36:20;;;;;;;;;;;;;;;9.80;100.00;99334.19;3055814;19;19922;-48
2022/09/19 05:37:51;;;;;;;;;;;;;;;9.80;100.00;99339.50;3055024;19;19922;-48
2022/09/19 05:39:28;;;;;;;;;;;;;;;9.81;100.00;99341.22;3054918;19;19926;-47
2022/09/19 05:40:53;;;;;;;;;;;;;;;9.86;100.00;99344.38;3053984;19;20014;-49
2022/09/19 05:42:15;;;;;;;;;;;;;;;9.91;100.00;99336.88;3054531;19;19923;-48
2022/09/19 05:43:17;;;;;;;;;;;;;;;9.92;100.00;99343.91;3056278;19;20310;-47
2022/09/19 05:44:23;;;;;;;;;;;;;;;9.89;100.00;99339.69;3054016;19;19923;-47
2022/09/19 05:45:32;;;;;;;;;;;;;;;9.95;100.00;99341.00;3054611;19;20261;-48
2022/09/19 05:46:37;;;;;;;;;;;;;;;10.01;100.00;99345.88;3054372;19;19922;-47
2022/09/19 05:47:39;;;;;;;;;;;;;;;10.00;100.00;99347.69;3055739;19;20344;-48
2022/09/19 05:48:45;;;;;;;;;;;;;;;10.04;100.00;99353.59;3054711;19;19931;-47
2022/09/19 05:49:47;;;;;;;;;;;;;;;10.07;100.00;99358.72;3054710;19;19922;-47
2022/09/19 05:50:52;;;;;;;;;;;;;;;10.11;100.00;99360.19;3054336;19;19918;-48
2022/09/19 05:51:55;;;;;;;;;;;;;;;10.16;100.00;99363.31;3054975;19;19919;-47
2022/09/19 05:54:18;;;;;;;;;;;;;;;10.25;100.00;99357.31;3054871;19;20165;-47
2022/09/19 05:55:43;;;;;;;;;;;;;;;10.22;100.00;99357.56;3054555;19;19940;-48
2022/09/19 05:57:08;;;;;;;;;;;;;;;10.31;100.00;99367.50;3055034;19;19923;-48
2022/09/19 05:58:12;;;;;;;;;;;;;;;10.39;100.00;99373.06;3055096;19;19971;-48
2022/09/19 05:59:17;;;;;;;;;;;;;;;10.44;100.00;99368.22;3054740;19;19926;-47